sensor_id;sensor_type;location;lat;lon;timestamp;temperature;humidity
6291;DHT22;3178;48.730;8.990;2023-04-24T00:00:34;10.30;99.90
6291;DHT22;3178;48.730;8.990;2023-04-24T00:03:01;10.30;99.90
6291;DHT22;3178;48.730;8.990;2023-04-24T00:05:28;10.30;99.90
6291;DHT22;3178;48.730;8.990;2023-04-24T00:07:53;10.30;99.90
6291;DHT22;3178;48.730;8.990;2023-04-24T00:10:20;10.30;99.90
6291;DHT22;3178;48.730;8.990;2023-04-24T00:12:46;10.30;99.90
6291;DHT22;3178;48.730;8.990;2023-04-24T00:15:11;10.40;99.90
6291;DHT22;3178;48.730;8.990;2023-04-24T00:17:37;10.40;99.90
6291;DHT22;3178;48.730;8.990;2023-04-24T00:20:04;10.40;99.90
6291;DHT22;3178;48.730;8.990;2023-04-24T00:22:30;10.40;99.90
6291;DHT22;3178;48.730;8.990;2023-04-24T00:24:56;10.40;99.90
6291;DHT22;3178;48.730;8.990;2023-04-24T00:27:22;10.40;99.90
6291;DHT22;3178;48.730;8.990;2023-04-24T00:29:47;10.40;99.90
6291;DHT22;3178;48.730;8.990;2023-04-24T00:32:13;10.40;99.90
6291;DHT22;3178;48.730;8.990;2023-04-24T00:34:39;10.50;99.90
6291;DHT22;3178;48.730;8.990;2023-04-24T00:37:05;10.50;99.90
6291;DHT22;3178;48.730;8.990;2023-04-24T00:39:30;10.50;99.90
6291;DHT22;3178;48.730;8.990;2023-04-24T00:41:56;10.60;99.90
6291;DHT22;3178;48.730;8.990;2023-04-24T00:44:22;10.50;99.90
6291;DHT22;3178;48.730;8.990;2023-04-24T00:46:49;10.50;99.90
6291;DHT22;3178;48.730;8.990;2023-04-24T00:49:18;10.50;99.90
6291;DHT22;3178;48.730;8.990;2023-04-24T00:51:44;10.50;99.90
6291;DHT22;3178;48.730;8.990;2023-04-24T00:54:12;10.50;99.90
6291;DHT22;3178;48.730;8.990;2023-04-24T00:56:37;10.50;99.90
6291;DHT22;3178;48.730;8.990;2023-04-24T00:59:03;10.50;99.90
6291;DHT22;3178;48.730;8.990;2023-04-24T01:01:29;10.50;99.90
6291;DHT22;3178;48.730;8.990;2023-04-24T01:03:56;10.50;99.90
6291;DHT22;3178;48.730;8.990;2023-04-24T01:06:22;10.50;99.90
6291;DHT22;3178;48.730;8.990;2023-04-24T01:08:48;10.50;99.90
6291;DHT22;3178;48.730;8.990;2023-04-24T01:11:14;10.50;99.90
6291;DHT22;3178;48.730;8.990;2023-04-24T01:13:40;10.50;99.90
6291;DHT22;3178;48.730;8.990;2023-04-24T01:16:06;10.50;99.90
6291;DHT22;3178;48.730;8.990;2023-04-24T01:18:32;10.60;99.90
6291;DHT22;3178;48.730;8.990;2023-04-24T01:20:58;10.60;99.90
6291;DHT22;3178;48.730;8.990;2023-04-24T01:23:25;10.60;99.90
6291;DHT22;3178;48.730;8.990;2023-04-24T01:25:50;10.50;99.90
6291;DHT22;3178;48.730;8.990;2023-04-24T01:28:17;10.50;99.90
6291;DHT22;3178;48.730;8.990;2023-04-24T01:30:43;10.40;99.90
6291;DHT22;3178;48.730;8.990;2023-04-24T01:33:09;10.50;99.90
6291;DHT22;3178;48.730;8.990;2023-04-24T01:35:36;10.40;99.90
6291;DHT22;3178;48.730;8.990;2023-04-24T01:38:03;10.40;99.90
6291;DHT22;3178;48.730;8.990;2023-04-24T01:40:28;10.40;99.90
6291;DHT22;3178;48.730;8.990;2023-04-24T01:42:54;10.40;99.90
6291;DHT22;3178;48.730;8.990;2023-04-24T01:45:20;10.40;99.90
6291;DHT22;3178;48.730;8.990;2023-04-24T01:47:46;10.40;99.90
6291;DHT22;3178;48.730;8.990;2023-04-24T01:50:12;10.40;99.90
6291;DHT22;3178;48.730;8.990;2023-04-24T01:52:38;10.30;99.90
6291;DHT22;3178;48.730;8.990;2023-04-24T01:55:04;10.30;99.90
6291;DHT22;3178;48.730;8.990;2023-04-24T01:57:31;10.20;99.90
6291;DHT22;3178;48.730;8.990;2023-04-24T01:59:57;10.20;99.90
6291;DHT22;3178;48.730;8.990;2023-04-24T02:02:23;10.30;99.90
6291;DHT22;3178;48.730;8.990;2023-04-24T02:04:56;10.20;99.90
6291;DHT22;3178;48.730;8.990;2023-04-24T02:07:22;10.20;99.90
6291;DHT22;3178;48.730;8.990;2023-04-24T02:09:48;10.20;99.90
6291;DHT22;3178;48.730;8.990;2023-04-24T02:12:14;10.20;99.90
6291;DHT22;3178;48.730;8.990;2023-04-24T02:14:40;10.20;99.90
6291;DHT22;3178;48.730;8.990;2023-04-24T02:17:05;10.20;99.90
6291;DHT22;3178;48.730;8.990;2023-04-24T02:19:31;10.10;99.90
6291;DHT22;3178;48.730;8.990;2023-04-24T02:21:57;10.20;99.90
6291;DHT22;3178;48.730;8.990;2023-04-24T02:24:22;10.10;99.90
6291;DHT22;3178;48.730;8.990;2023-04-24T02:26:48;10.10;99.90
6291;DHT22;3178;48.730;8.990;2023-04-24T02:29:14;10.10;99.90
6291;DHT22;3178;48.730;8.990;2023-04-24T02:31:40;10.10;99.90
6291;DHT22;3178;48.730;8.990;2023-04-24T02:34:05;10.20;99.90
6291;DHT22;3178;48.730;8.990;2023-04-24T02:36:31;10.20;99.90
6291;DHT22;3178;48.730;8.990;2023-04-24T02:38:57;10.30;99.90
6291;DHT22;3178;48.730;8.990;2023-04-24T02:41:22;10.30;99.90
6291;DHT22;3178;48.730;8.990;2023-04-24T02:43:48;10.30;99.90
6291;DHT22;3178;48.730;8.990;2023-04-24T02:46:13;10.30;99.90
6291;DHT22;3178;48.730;8.990;2023-04-24T02:48:39;10.30;99.90
6291;DHT22;3178;48.730;8.990;2023-04-24T02:51:04;10.30;99.90
6291;DHT22;3178;48.730;8.990;2023-04-24T02:53:30;10.20;99.90
6291;DHT22;3178;48.730;8.990;2023-04-24T02:55:56;10.20;99.90
6291;DHT22;3178;48.730;8.990;2023-04-24T02:58:22;10.20;99.90
6291;DHT22;3178;48.730;8.990;2023-04-24T03:00:47;10.20;99.90
6291;DHT22;3178;48.730;8.990;2023-04-24T03:03:14;10.20;99.90
6291;DHT22;3178;48.730;8.990;2023-04-24T03:05:40;10.10;99.90
6291;DHT22;3178;48.730;8.990;2023-04-24T03:08:06;10.10;99.90
6291;DHT22;3178;48.730;8.990;2023-04-24T03:10:31;10.10;99.90
6291;DHT22;3178;48.730;8.990;2023-04-24T03:12:57;10.00;99.90
6291;DHT22;3178;48.730;8.990;2023-04-24T03:15:23;10.00;99.90
6291;DHT22;3178;48.730;8.990;2023-04-24T03:17:48;10.00;99.90
6291;DHT22;3178;48.730;8.990;2023-04-24T03:20:14;9.90;99.90
6291;DHT22;3178;48.730;8.990;2023-04-24T03:22:40;9.90;99.90
6291;DHT22;3178;48.730;8.990;2023-04-24T03:25:05;9.90;99.90
6291;DHT22;3178;48.730;8.990;2023-04-24T03:27:31;9.90;99.90
6291;DHT22;3178;48.730;8.990;2023-04-24T03:29:57;9.90;99.90
6291;DHT22;3178;48.730;8.990;2023-04-24T03:32:23;9.90;99.90
6291;DHT22;3178;48.730;8.990;2023-04-24T03:34:50;10.00;99.90
6291;DHT22;3178;48.730;8.990;2023-04-24T03:37:18;10.00;99.90
6291;DHT22;3178;48.730;8.990;2023-04-24T03:39:44;9.90;99.90
6291;DHT22;3178;48.730;8.990;2023-04-24T03:42:09;9.90;99.90
6291;DHT22;3178;48.730;8.990;2023-04-24T03:44:36;9.80;99.90
6291;DHT22;3178;48.730;8.990;2023-04-24T03:47:01;9.80;99.90
6291;DHT22;3178;48.730;8.990;2023-04-24T03:49:27;9.80;99.90
6291;DHT22;3178;48.730;8.990;2023-04-24T03:51:52;9.70;99.90
6291;DHT22;3178;48.730;8.990;2023-04-24T03:54:18;9.70;99.90
6291;DHT22;3178;48.730;8.990;2023-04-24T03:56:44;9.70;99.90
6291;DHT22;3178;48.730;8.990;2023-04-24T03:59:10;9.60;99.90
6291;DHT22;3178;48.730;8.990;2023-04-24T04:01:35;9.60;99.90
6291;DHT22;3178;48.730;8.990;2023-04-24T04:04:03;9.60;99.90
6291;DHT22;3178;48.730;8.990;2023-04-24T04:06:29;9.70;99.90
6291;DHT22;3178;48.730;8.990;2023-04-24T04:08:56;9.70;99.90
6291;DHT22;3178;48.730;8.990;2023-04-24T04:11:22;9.80;99.90
6291;DHT22;3178;48.730;8.990;2023-04-24T04:13:47;9.80;99.90
6291;DHT22;3178;48.730;8.990;2023-04-24T04:16:13;9.90;99.90
6291;DHT22;3178;48.730;8.990;2023-04-24T04:18:39;9.90;99.90
6291;DHT22;3178;48.730;8.990;2023-04-24T04:21:04;9.90;99.90
6291;DHT22;3178;48.730;8.990;2023-04-24T04:23:30;9.90;99.90
6291;DHT22;3178;48.730;8.990;2023-04-24T04:25:55;9.80;99.90
6291;DHT22;3178;48.730;8.990;2023-04-24T04:28:21;9.70;99.90
6291;DHT22;3178;48.730;8.990;2023-04-24T04:30:46;9.60;99.90
6291;DHT22;3178;48.730;8.990;2023-04-24T04:33:12;9.60;99.90
6291;DHT22;3178;48.730;8.990;2023-04-24T04:35:38;9.50;99.90
6291;DHT22;3178;48.730;8.990;2023-04-24T04:38:04;9.50;99.90
6291;DHT22;3178;48.730;8.990;2023-04-24T04:40:30;9.50;99.90
6291;DHT22;3178;48.730;8.990;2023-04-24T04:42:55;9.40;99.90
6291;DHT22;3178;48.730;8.990;2023-04-24T04:45:21;9.50;99.90
6291;DHT22;3178;48.730;8.990;2023-04-24T04:47:47;9.50;99.90
6291;DHT22;3178;48.730;8.990;2023-04-24T04:50:12;9.50;99.90
6291;DHT22;3178;48.730;8.990;2023-04-24T04:52:39;9.50;99.90
6291;DHT22;3178;48.730;8.990;2023-04-24T04:55:04;9.50;99.90
6291;DHT22;3178;48.730;8.990;2023-04-24T04:57:30;9.40;99.90
6291;DHT22;3178;48.730;8.990;2023-04-24T04:59:56;9.40;99.90
6291;DHT22;3178;48.730;8.990;2023-04-24T05:02:22;9.40;99.90
6291;DHT22;3178;48.730;8.990;2023-04-24T05:04:47;9.30;99.90
6291;DHT22;3178;48.730;8.990;2023-04-24T05:07:13;9.30;99.90
6291;DHT22;3178;48.730;8.990;2023-04-24T05:09:38;9.30;99.90
6291;DHT22;3178;48.730;8.990;2023-04-24T05:12:04;9.30;99.90
6291;DHT22;3178;48.730;8.990;2023-04-24T05:14:29;9.40;99.90
6291;DHT22;3178;48.730;8.990;2023-04-24T05:16:55;9.40;99.90
6291;DHT22;3178;48.730;8.990;2023-04-24T05:19:20;9.40;99.90
6291;DHT22;3178;48.730;8.990;2023-04-24T05:21:46;9.40;99.90
6291;DHT22;3178;48.730;8.990;2023-04-24T05:24:11;9.50;99.90
6291;DHT22;3178;48.730;8.990;2023-04-24T05:26:37;9.50;99.90
6291;DHT22;3178;48.730;8.990;2023-04-24T05:29:03;9.50;99.90
6291;DHT22;3178;48.730;8.990;2023-04-24T05:31:29;9.50;99.90
6291;DHT22;3178;48.730;8.990;2023-04-24T05:33:54;9.50;99.90
6291;DHT22;3178;48.730;8.990;2023-04-24T05:36:20;9.50;99.90
6291;DHT22;3178;48.730;8.990;2023-04-24T05:38:46;9.50;99.90
6291;DHT22;3178;48.730;8.990;2023-04-24T05:41:11;9.50;99.90
6291;DHT22;3178;48.730;8.990;2023-04-24T05:43:37;9.60;99.90
6291;DHT22;3178;48.730;8.990;2023-04-24T05:46:02;9.60;99.90
6291;DHT22;3178;48.730;8.990;2023-04-24T05:48:28;9.60;99.90
6291;DHT22;3178;48.730;8.990;2023-04-24T05:50:53;9.60;99.90
6291;DHT22;3178;48.730;8.990;2023-04-24T05:53:19;9.60;99.90
6291;DHT22;3178;48.730;8.990;2023-04-24T05:55:45;9.60;99.90
6291;DHT22;3178;48.730;8.990;2023-04-24T05:58:11;9.60;99.90
6291;DHT22;3178;48.730;8.990;2023-04-24T06:00:37;9.50;99.90
6291;DHT22;3178;48.730;8.990;2023-04-24T06:03:05;9.40;99.90
6291;DHT22;3178;48.730;8.990;2023-04-24T06:05:31;9.40;99.90
